sensor_id;sensor_type;location;lat;lon;timestamp;P1;durP1;ratioP1;P2;durP2;ratioP2
61435;SDS011;47304;47.456;19.160;2024-02-23T00:02:13;5.80;;;2.50;;
61435;SDS011;47304;47.456;19.160;2024-02-23T00:04:41;6.80;;;2.80;;
61435;SDS011;47304;47.456;19.160;2024-02-23T00:07:09;6.00;;;2.60;;
61435;SDS011;47304;47.456;19.160;2024-02-23T00:09:37;6.70;;;3.00;;
61435;SDS011;47304;47.456;19.160;2024-02-23T00:12:05;7.30;;;2.80;;
61435;SDS011;47304;47.456;19.160;2024-02-23T00:14:34;6.80;;;2.90;;
61435;SDS011;47304;47.456;19.160;2024-02-23T00:17:02;7.60;;;3.00;;
61435;SDS011;47304;47.456;19.160;2024-02-23T00:19:34;8.50;;;3.00;;
61435;SDS011;47304;47.456;19.160;2024-02-23T00:24:29;6.20;;;3.00;;
61435;SDS011;47304;47.456;19.160;2024-02-23T00:26:57;8.20;;;2.80;;
61435;SDS011;47304;47.456;19.160;2024-02-23T00:29:25;6.40;;;3.00;;
61435;SDS011;47304;47.456;19.160;2024-02-23T00:31:53;6.50;;;3.10;;
61435;SDS011;47304;47.456;19.160;2024-02-23T00:34:21;7.30;;;3.20;;
61435;SDS011;47304;47.456;19.160;2024-02-23T00:36:50;6.70;;;3.20;;
61435;SDS011;47304;47.456;19.160;2024-02-23T00:39:18;8.30;;;3.10;;
61435;SDS011;47304;47.456;19.160;2024-02-23T00:41:46;7.50;;;3.30;;
61435;SDS011;47304;47.456;19.160;2024-02-23T00:44:14;6.90;;;3.10;;
61435;SDS011;47304;47.456;19.160;2024-02-23T00:46:43;5.70;;;2.90;;
61435;SDS011;47304;47.456;19.160;2024-02-23T00:49:13;7.70;;;3.40;;
61435;SDS011;47304;47.456;19.160;2024-02-23T00:51:41;5.50;;;2.80;;
61435;SDS011;47304;47.456;19.160;2024-02-23T00:54:09;7.30;;;3.00;;
61435;SDS011;47304;47.456;19.160;2024-02-23T00:56:37;8.40;;;3.40;;
61435;SDS011;47304;47.456;19.160;2024-02-23T00:59:06;7.60;;;2.90;;
61435;SDS011;47304;47.456;19.160;2024-02-23T01:01:34;7.20;;;3.30;;
61435;SDS011;47304;47.456;19.160;2024-02-23T01:04:02;6.90;;;2.90;;
61435;SDS011;47304;47.456;19.160;2024-02-23T01:06:31;7.30;;;3.00;;
61435;SDS011;47304;47.456;19.160;2024-02-23T01:08:59;7.00;;;3.10;;
61435;SDS011;47304;47.456;19.160;2024-02-23T01:11:27;7.40;;;3.20;;
61435;SDS011;47304;47.456;19.160;2024-02-23T01:13:55;7.30;;;3.20;;
61435;SDS011;47304;47.456;19.160;2024-02-23T01:16:24;6.50;;;3.10;;
61435;SDS011;47304;47.456;19.160;2024-02-23T01:18:52;6.70;;;3.00;;
61435;SDS011;47304;47.456;19.160;2024-02-23T01:21:20;7.20;;;3.30;;
61435;SDS011;47304;47.456;19.160;2024-02-23T01:23:49;8.20;;;3.90;;
61435;SDS011;47304;47.456;19.160;2024-02-23T01:26:17;7.90;;;4.00;;
61435;SDS011;47304;47.456;19.160;2024-02-23T01:28:45;7.90;;;3.60;;
61435;SDS011;47304;47.456;19.160;2024-02-23T01:31:14;8.70;;;4.10;;
61435;SDS011;47304;47.456;19.160;2024-02-23T01:33:42;8.00;;;4.10;;
61435;SDS011;47304;47.456;19.160;2024-02-23T01:36:10;8.10;;;3.70;;
61435;SDS011;47304;47.456;19.160;2024-02-23T01:38:38;8.90;;;4.10;;
61435;SDS011;47304;47.456;19.160;2024-02-23T01:41:07;9.10;;;3.90;;
61435;SDS011;47304;47.456;19.160;2024-02-23T01:43:35;7.50;;;3.50;;
61435;SDS011;47304;47.456;19.160;2024-02-23T01:46:04;10.10;;;4.10;;
61435;SDS011;47304;47.456;19.160;2024-02-23T01:48:33;7.20;;;3.50;;
61435;SDS011;47304;47.456;19.160;2024-02-23T01:51:01;7.90;;;3.50;;
61435;SDS011;47304;47.456;19.160;2024-02-23T01:53:30;8.50;;;3.60;;
61435;SDS011;47304;47.456;19.160;2024-02-23T01:55:58;7.90;;;3.80;;
61435;SDS011;47304;47.456;19.160;2024-02-23T01:58:27;7.40;;;3.70;;
61435;SDS011;47304;47.456;19.160;2024-02-23T02:00:56;7.60;;;3.20;;
61435;SDS011;47304;47.456;19.160;2024-02-23T02:03:24;7.70;;;3.60;;
61435;SDS011;47304;47.456;19.160;2024-02-23T02:05:52;6.50;;;2.80;;
61435;SDS011;47304;47.456;19.160;2024-02-23T02:08:21;9.40;;;3.70;;
61435;SDS011;47304;47.456;19.160;2024-02-23T02:10:49;9.10;;;3.20;;
61435;SDS011;47304;47.456;19.160;2024-02-23T02:13:18;8.00;;;3.30;;
61435;SDS011;47304;47.456;19.160;2024-02-23T02:15:46;8.10;;;3.70;;
61435;SDS011;47304;47.456;19.160;2024-02-23T02:18:14;7.80;;;3.50;;
61435;SDS011;47304;47.456;19.160;2024-02-23T02:20:46;8.50;;;4.10;;
61435;SDS011;47304;47.456;19.160;2024-02-23T02:23:20;6.90;;;3.00;;
61435;SDS011;47304;47.456;19.160;2024-02-23T02:25:53;6.80;;;3.30;;
61435;SDS011;47304;47.456;19.160;2024-02-23T02:28:21;7.00;;;3.10;;
61435;SDS011;47304;47.456;19.160;2024-02-23T02:30:50;7.30;;;3.40;;
61435;SDS011;47304;47.456;19.160;2024-02-23T02:33:18;7.90;;;3.30;;
61435;SDS011;47304;47.456;19.160;2024-02-23T02:35:47;8.10;;;3.50;;
61435;SDS011;47304;47.456;19.160;2024-02-23T02:38:15;8.30;;;3.30;;
61435;SDS011;47304;47.456;19.160;2024-02-23T02:40:43;6.90;;;3.00;;
61435;SDS011;47304;47.456;19.160;2024-02-23T02:43:12;8.00;;;3.30;;
61435;SDS011;47304;47.456;19.160;2024-02-23T02:45:40;6.90;;;3.00;;
61435;SDS011;47304;47.456;19.160;2024-02-23T02:48:08;6.80;;;3.10;;
61435;SDS011;47304;47.456;19.160;2024-02-23T02:50:37;9.80;;;3.60;;
61435;SDS011;47304;47.456;19.160;2024-02-23T02:53:05;8.60;;;3.60;;
61435;SDS011;47304;47.456;19.160;2024-02-23T02:55:33;8.30;;;3.30;;
61435;SDS011;47304;47.456;19.160;2024-02-23T02:58:01;6.10;;;2.90;;
61435;SDS011;47304;47.456;19.160;2024-02-23T03:00:30;6.70;;;3.10;;
61435;SDS011;47304;47.456;19.160;2024-02-23T03:02:59;7.70;;;3.80;;
61435;SDS011;47304;47.456;19.160;2024-02-23T03:05:27;6.80;;;3.50;;
61435;SDS011;47304;47.456;19.160;2024-02-23T03:07:55;8.20;;;4.30;;
61435;SDS011;47304;47.456;19.160;2024-02-23T03:10:23;9.00;;;3.70;;
61435;SDS011;47304;47.456;19.160;2024-02-23T03:12:51;8.50;;;3.90;;
61435;SDS011;47304;47.456;19.160;2024-02-23T03:15:20;6.70;;;2.70;;
61435;SDS011;47304;47.456;19.160;2024-02-23T03:17:48;8.40;;;3.60;;
61435;SDS011;47304;47.456;19.160;2024-02-23T03:20:16;7.70;;;3.20;;
61435;SDS011;47304;47.456;19.160;2024-02-23T03:22:45;7.20;;;3.10;;
61435;SDS011;47304;47.456;19.160;2024-02-23T03:25:13;7.40;;;2.40;;
61435;SDS011;47304;47.456;19.160;2024-02-23T03:27:41;7.40;;;3.10;;
61435;SDS011;47304;47.456;19.160;2024-02-23T03:30:10;7.30;;;3.60;;
61435;SDS011;47304;47.456;19.160;2024-02-23T03:32:39;6.60;;;3.10;;
61435;SDS011;47304;47.456;19.160;2024-02-23T03:35:07;7.70;;;3.40;;
61435;SDS011;47304;47.456;19.160;2024-02-23T03:37:36;7.50;;;3.10;;
61435;SDS011;47304;47.456;19.160;2024-02-23T03:40:05;6.90;;;3.40;;
61435;SDS011;47304;47.456;19.160;2024-02-23T03:42:35;8.90;;;3.90;;
61435;SDS011;47304;47.456;19.160;2024-02-23T03:45:04;9.60;;;3.80;;
61435;SDS011;47304;47.456;19.160;2024-02-23T03:47:33;8.30;;;3.20;;
61435;SDS011;47304;47.456;19.160;2024-02-23T03:50:01;8.50;;;3.30;;
61435;SDS011;47304;47.456;19.160;2024-02-23T03:52:29;7.90;;;3.60;;
61435;SDS011;47304;47.456;19.160;2024-02-23T03:54:57;7.30;;;3.10;;
61435;SDS011;47304;47.456;19.160;2024-02-23T03:57:25;6.30;;;2.70;;
61435;SDS011;47304;47.456;19.160;2024-02-23T03:59:54;7.80;;;3.50;;
61435;SDS011;47304;47.456;19.160;2024-02-23T04:02:22;6.30;;;3.00;;
61435;SDS011;47304;47.456;19.160;2024-02-23T04:04:50;6.60;;;3.40;;
61435;SDS011;47304;47.456;19.160;2024-02-23T04:07:19;6.90;;;3.20;;
61435;SDS011;47304;47.456;19.160;2024-02-23T04:09:47;6.10;;;2.60;;
61435;SDS011;47304;47.456;19.160;2024-02-23T04:12:15;7.80;;;3.10;;
61435;SDS011;47304;47.456;19.160;2024-02-23T04:14:43;7.40;;;3.40;;
61435;SDS011;47304;47.456;19.160;2024-02-23T04:17:12;7.60;;;3.10;;
61435;SDS011;47304;47.456;19.160;2024-02-23T04:19:41;7.00;;;3.30;;
61435;SDS011;47304;47.456;19.160;2024-02-23T04:22:09;7.50;;;3.20;;
61435;SDS011;47304;47.456;19.160;2024-02-23T04:24:39;6.60;;;3.20;;
61435;SDS011;47304;47.456;19.160;2024-02-23T04:27:08;6.90;;;3.20;;
61435;SDS011;47304;47.456;19.160;2024-02-23T04:29:36;9.30;;;4.50;;
61435;SDS011;47304;47.456;19.160;2024-02-23T04:32:05;9.40;;;4.40;;
61435;SDS011;47304;47.456;19.160;2024-02-23T04:34:34;7.30;;;3.60;;
61435;SDS011;47304;47.456;19.160;2024-02-23T04:37:02;8.80;;;4.10;;
61435;SDS011;47304;47.456;19.160;2024-02-23T04:39:31;9.60;;;3.90;;
61435;SDS011;47304;47.456;19.160;2024-02-23T04:41:59;10.30;;;4.70;;
61435;SDS011;47304;47.456;19.160;2024-02-23T04:44:27;8.30;;;4.20;;
61435;SDS011;47304;47.456;19.160;2024-02-23T04:46:55;8.90;;;3.90;;
61435;SDS011;47304;47.456;19.160;2024-02-23T04:49:24;8.60;;;4.00;;
61435;SDS011;47304;47.456;19.160;2024-02-23T04:51:55;8.50;;;4.60;;
61435;SDS011;47304;47.456;19.160;2024-02-23T04:56:51;11.50;;;4.40;;
61435;SDS011;47304;47.456;19.160;2024-02-23T04:59:19;9.00;;;4.70;;
61435;SDS011;47304;47.456;19.160;2024-02-23T05:01:48;9.40;;;3.80;;
61435;SDS011;47304;47.456;19.160;2024-02-23T05:04:16;8.90;;;4.20;;
61435;SDS011;47304;47.456;19.160;2024-02-23T05:06:45;8.70;;;4.00;;
61435;SDS011;47304;47.456;19.160;2024-02-23T05:09:13;11.60;;;4.50;;
61435;SDS011;47304;47.456;19.160;2024-02-23T05:11:42;8.50;;;3.90;;
61435;SDS011;47304;47.456;19.160;2024-02-23T05:14:10;7.70;;;3.90;;
61435;SDS011;47304;47.456;19.160;2024-02-23T05:16:38;7.50;;;4.10;;
61435;SDS011;47304;47.456;19.160;2024-02-23T05:19:07;10.70;;;4.20;;
61435;SDS011;47304;47.456;19.160;2024-02-23T05:21:35;8.30;;;4.30;;
61435;SDS011;47304;47.456;19.160;2024-02-23T05:24:04;10.00;;;4.30;;
61435;SDS011;47304;47.456;19.160;2024-02-23T05:26:35;9.50;;;4.50;;
61435;SDS011;47304;47.456;19.160;2024-02-23T05:29:17;6.80;;;3.50;;
61435;SDS011;47304;47.456;19.160;2024-02-23T05:31:46;8.40;;;3.70;;
61435;SDS011;47304;47.456;19.160;2024-02-23T05:34:15;7.60;;;3.80;;
61435;SDS011;47304;47.456;19.160;2024-02-23T05:36:43;9.40;;;4.30;;
61435;SDS011;47304;47.456;19.160;2024-02-23T05:39:12;10.30;;;4.10;;
61435;SDS011;47304;47.456;19.160;2024-02-23T05:41:40;8.10;;;3.80;;
61435;SDS011;47304;47.456;19.160;2024-02-23T05:44:09;7.60;;;3.60;;
61435;SDS011;47304;47.456;19.160;2024-02-23T05:46:37;9.40;;;3.70;;
61435;SDS011;47304;47.456;19.160;2024-02-23T05:49:05;9.10;;;3.90;;
61435;SDS011;47304;47.456;19.160;2024-02-23T05:51:33;8.20;;;3.70;;
61435;SDS011;47304;47.456;19.160;2024-02-23T05:54:02;9.30;;;4.20;;
61435;SDS011;47304;47.456;19.160;2024-02-23T05:56:30;8.10;;;3.90;;
61435;SDS011;47304;47.456;19.160;2024-02-23T05:58:58;8.10;;;3.80;;
61435;SDS011;47304;47.456;19.160;2024-02-23T06:01:27;7.70;;;3.80;;
61435;SDS011;47304;47.456;19.160;2024-02-23T06:03:56;9.90;;;4.30;;
61435;SDS011;47304;47.456;19.160;2024-02-23T06:06:24;8.10;;;4.40;;
61435;SDS011;47304;47.456;19.160;2024-02-23T06:08:52;10.80;;;4.50;;
61435;SDS011;47304;47.456;19.160;2024-02-23T06:11:20;8.10;;;4.30;;
61435;SDS011;47304;47.456;19.160;2024-02-23T06:13:48;10.20;;;4.50;;
61435;SDS011;47304;47.456;19.160;2024-02-23T06:16:17;9.60;;;5.40;;
61435;SDS011;47304;47.456;19.160;2024-02-23T06:18:45;8.00;;;4.20;;
61435;SDS011;47304;47.456;19.160;2024-02-23T06:21:15;11.40;;;5.00;;
61435;SDS011;47304;47.456;19.160;2024-02-23T06:23:44;11.00;;;6.10;;
61435;SDS011;47304;47.456;19.160;2024-02-23T06:26:12;10.60;;;5.90;;
61435;SDS011;47304;47.456;19.160;2024-02-23T06:28:41;9.50;;;4.60;;
61435;SDS011;47304;47.456;19.160;2024-02-23T06:31:09;8.10;;;4.10;;
61435;SDS011;47304;47.456;19.160;2024-02-23T06:33:37;9.00;;;4.00;;
61435;SDS011;47304;47.456;19.160;2024-02-23T06:36:06;8.00;;;4.40;;
61435;SDS011;47304;47.456;19.160;2024-02-23T06:38:35;8.70;;;4.10;;
61435;SDS011;47304;47.456;19.160;2024-02-23T06:41:03;8.60;;;4.20;;
61435;SDS011;47304;47.456;19.160;2024-02-23T06:43:32;10.10;;;4.50;;
61435;SDS011;47304;47.456;19.160;2024-02-23T06:46:05;9.50;;;4.70;;
61435;SDS011;47304;47.456;19.160;2024-02-23T06:48:34;8.10;;;3.80;;
61435;SDS011;47304;47.456;19.160;2024-02-23T06:51:03;9.60;;;4.60;;
61435;SDS011;47304;47.456;19.160;2024-02-23T06:53:31;9.10;;;4.40;;
61435;SDS011;47304;47.456;19.160;2024-02-23T06:56:00;10.20;;;4.20;;
61435;SDS011;47304;47.456;19.160;2024-02-23T06:58:28;13.80;;;5.20;;
61435;SDS011;47304;47.456;19.160;2024-02-23T07:00:57;9.00;;;4.50;;
61435;SDS011;47304;47.456;19.160;2024-02-23T07:03:25;8.40;;;4.60;;
61435;SDS011;47304;47.456;19.160;2024-02-23T07:05:54;11.20;;;5.50;;
61435;SDS011;47304;47.456;19.160;2024-02-23T07:08:22;11.40;;;6.40;;
61435;SDS011;47304;47.456;19.160;2024-02-23T07:10:50;13.10;;;6.40;;
61435;SDS011;47304;47.456;19.160;2024-02-23T07:13:18;11.90;;;5.20;;
61435;SDS011;47304;47.456;19.160;2024-02-23T07:15:47;10.20;;;5.20;;
61435;SDS011;47304;47.456;19.160;2024-02-23T07:18:15;11.10;;;5.70;;
61435;SDS011;47304;47.456;19.160;2024-02-23T07:20:44;10.90;;;6.00;;
61435;SDS011;47304;47.456;19.160;2024-02-23T07:23:12;10.30;;;5.90;;
61435;SDS011;47304;47.456;19.160;2024-02-23T07:25:40;10.50;;;6.90;;
61435;SDS011;47304;47.456;19.160;2024-02-23T07:28:08;10.60;;;6.50;;
61435;SDS011;47304;47.456;19.160;2024-02-23T07:30:37;11.90;;;6.60;;
61435;SDS011;47304;47.456;19.160;2024-02-23T07:33:05;11.10;;;5.90;;
61435;SDS011;47304;47.456;19.160;2024-02-23T07:35:34;10.00;;;5.60;;
61435;SDS011;47304;47.456;19.160;2024-02-23T07:38:02;12.60;;;6.70;;
61435;SDS011;47304;47.456;19.160;2024-02-23T07:40:30;10.50;;;6.10;;
61435;SDS011;47304;47.456;19.160;2024-02-23T07:42:58;14.70;;;9.00;;
61435;SDS011;47304;47.456;19.160;2024-02-23T07:45:27;15.50;;;9.00;;
61435;SDS011;47304;47.456;19.160;2024-02-23T07:47:55;11.80;;;6.50;;
61435;SDS011;47304;47.456;19.160;2024-02-23T07:50:23;12.90;;;6.80;;
61435;SDS011;47304;47.456;19.160;2024-02-23T07:52:51;11.50;;;6.90;;
61435;SDS011;47304;47.456;19.160;2024-02-23T07:55:19;12.50;;;7.20;;
61435;SDS011;47304;47.456;19.160;2024-02-23T07:57:48;12.70;;;6.80;;
61435;SDS011;47304;47.456;19.160;2024-02-23T08:00:16;11.50;;;7.00;;
61435;SDS011;47304;47.456;19.160;2024-02-23T08:02:45;13.30;;;7.70;;
61435;SDS011;47304;47.456;19.160;2024-02-23T08:05:13;11.70;;;6.90;;
61435;SDS011;47304;47.456;19.160;2024-02-23T08:07:42;10.50;;;6.10;;
61435;SDS011;47304;47.456;19.160;2024-02-23T08:10:10;11.10;;;6.40;;
61435;SDS011;47304;47.456;19.160;2024-02-23T08:12:38;11.60;;;6.30;;
61435;SDS011;47304;47.456;19.160;2024-02-23T08:15:08;12.50;;;6.40;;
61435;SDS011;47304;47.456;19.160;2024-02-23T08:17:36;11.10;;;5.80;;
61435;SDS011;47304;47.456;19.160;2024-02-23T08:20:06;10.80;;;6.10;;
61435;SDS011;47304;47.456;19.160;2024-02-23T08:22:35;12.00;;;6.20;;
61435;SDS011;47304;47.456;19.160;2024-02-23T08:25:04;9.30;;;5.10;;
61435;SDS011;47304;47.456;19.160;2024-02-23T08:27:32;11.40;;;5.60;;
61435;SDS011;47304;47.456;19.160;2024-02-23T08:30:00;12.20;;;5.60;;
61435;SDS011;47304;47.456;19.160;2024-02-23T08:32:29;13.50;;;6.70;;
61435;SDS011;47304;47.456;19.160;2024-02-23T08:34:57;11.80;;;6.30;;
61435;SDS011;47304;47.456;19.160;2024-02-23T08:37:26;12.70;;;6.60;;
61435;SDS011;47304;47.456;19.160;2024-02-23T08:39:54;10.90;;;6.40;;
61435;SDS011;47304;47.456;19.160;2024-02-23T08:42:22;13.50;;;7.30;;
61435;SDS011;47304;47.456;19.160;2024-02-23T08:44:50;14.30;;;7.00;;
61435;SDS011;47304;47.456;19.160;2024-02-23T08:47:18;11.90;;;6.70;;
61435;SDS011;47304;47.456;19.160;2024-02-23T08:49:47;12.20;;;6.50;;
61435;SDS011;47304;47.456;19.160;2024-02-23T08:52:15;13.90;;;6.60;;
61435;SDS011;47304;47.456;19.160;2024-02-23T08:54:43;11.40;;;6.30;;
61435;SDS011;47304;47.456;19.160;2024-02-23T08:57:12;12.40;;;7.20;;
61435;SDS011;47304;47.456;19.160;2024-02-23T08:59:40;12.30;;;6.80;;
61435;SDS011;47304;47.456;19.160;2024-02-23T09:02:08;12.50;;;6.90;;
61435;SDS011;47304;47.456;19.160;2024-02-23T09:04:37;11.90;;;7.10;;
61435;SDS011;47304;47.456;19.160;2024-02-23T09:07:05;12.80;;;7.20;;
61435;SDS011;47304;47.456;19.160;2024-02-23T09:09:33;12.20;;;7.40;;
61435;SDS011;47304;47.456;19.160;2024-02-23T09:12:03;12.60;;;7.40;;
61435;SDS011;47304;47.456;19.160;2024-02-23T09:14:47;12.30;;;7.60;;
61435;SDS011;47304;47.456;19.160;2024-02-23T09:17:15;13.60;;;8.40;;
61435;SDS011;47304;47.456;19.160;2024-02-23T09:19:46;14.80;;;9.00;;
61435;SDS011;47304;47.456;19.160;2024-02-23T09:24:43;13.70;;;8.40;;
61435;SDS011;47304;47.456;19.160;2024-02-23T09:27:12;13.80;;;8.40;;
61435;SDS011;47304;47.456;19.160;2024-02-23T09:29:40;15.50;;;10.30;;
61435;SDS011;47304;47.456;19.160;2024-02-23T09:32:11;18.40;;;10.60;;
61435;SDS011;47304;47.456;19.160;2024-02-23T09:34:42;18.10;;;10.30;;
61435;SDS011;47304;47.456;19.160;2024-02-23T09:37:10;14.40;;;9.20;;
61435;SDS011;47304;47.456;19.160;2024-02-23T09:39:40;16.20;;;10.20;;
61435;SDS011;47304;47.456;19.160;2024-02-23T09:42:09;17.00;;;10.80;;
61435;SDS011;47304;47.456;19.160;2024-02-23T09:44:38;16.30;;;10.50;;
61435;SDS011;47304;47.456;19.160;2024-02-23T09:47:08;14.70;;;9.00;;
61435;SDS011;47304;47.456;19.160;2024-02-23T09:49:38;13.50;;;7.10;;
61435;SDS011;47304;47.456;19.160;2024-02-23T09:52:08;10.70;;;6.20;;
61435;SDS011;47304;47.456;19.160;2024-02-23T09:54:36;11.10;;;6.00;;
61435;SDS011;47304;47.456;19.160;2024-02-23T09:57:06;11.60;;;5.10;;
61435;SDS011;47304;47.456;19.160;2024-02-23T09:59:35;11.60;;;5.20;;
61435;SDS011;47304;47.456;19.160;2024-02-23T10:02:04;11.00;;;5.40;;
61435;SDS011;47304;47.456;19.160;2024-02-23T10:04:35;9.90;;;4.70;;
61435;SDS011;47304;47.456;19.160;2024-02-23T10:07:03;9.40;;;4.80;;
61435;SDS011;47304;47.456;19.160;2024-02-23T10:09:32;11.50;;;5.20;;
61435;SDS011;47304;47.456;19.160;2024-02-23T10:12:00;9.20;;;5.10;;
61435;SDS011;47304;47.456;19.160;2024-02-23T10:14:29;10.30;;;5.30;;
61435;SDS011;47304;47.456;19.160;2024-02-23T10:16:57;8.90;;;4.60;;
61435;SDS011;47304;47.456;19.160;2024-02-23T10:19:25;9.50;;;4.70;;
61435;SDS011;47304;47.456;19.160;2024-02-23T10:21:54;8.60;;;4.80;;
61435;SDS011;47304;47.456;19.160;2024-02-23T10:24:23;8.80;;;4.70;;
61435;SDS011;47304;47.456;19.160;2024-02-23T10:26:52;9.40;;;5.20;;
61435;SDS011;47304;47.456;19.160;2024-02-23T10:29:20;9.60;;;5.20;;
61435;SDS011;47304;47.456;19.160;2024-02-23T10:31:48;8.70;;;4.80;;
61435;SDS011;47304;47.456;19.160;2024-02-23T10:34:22;10.00;;;4.60;;
61435;SDS011;47304;47.456;19.160;2024-02-23T10:36:53;9.30;;;4.70;;
61435;SDS011;47304;47.456;19.160;2024-02-23T10:39:22;8.30;;;4.90;;
61435;SDS011;47304;47.456;19.160;2024-02-23T10:41:57;9.40;;;4.80;;
61435;SDS011;47304;47.456;19.160;2024-02-23T10:44:29;9.90;;;4.40;;
61435;SDS011;47304;47.456;19.160;2024-02-23T10:46:57;12.60;;;6.40;;
61435;SDS011;47304;47.456;19.160;2024-02-23T10:49:26;8.90;;;4.30;;
61435;SDS011;47304;47.456;19.160;2024-02-23T10:51:55;12.80;;;5.00;;
61435;SDS011;47304;47.456;19.160;2024-02-23T10:54:25;10.30;;;5.30;;
61435;SDS011;47304;47.456;19.160;2024-02-23T10:56:54;9.70;;;5.00;;
61435;SDS011;47304;47.456;19.160;2024-02-23T10:59:22;9.70;;;4.40;;
61435;SDS011;47304;47.456;19.160;2024-02-23T11:01:51;8.60;;;3.90;;
61435;SDS011;47304;47.456;19.160;2024-02-23T11:04:21;9.10;;;4.70;;
61435;SDS011;47304;47.456;19.160;2024-02-23T11:06:53;10.50;;;4.60;;
61435;SDS011;47304;47.456;19.160;2024-02-23T11:09:23;9.30;;;4.40;;
61435;SDS011;47304;47.456;19.160;2024-02-23T11:11:54;9.30;;;5.50;;
61435;SDS011;47304;47.456;19.160;2024-02-23T11:14:34;12.60;;;6.70;;
61435;SDS011;47304;47.456;19.160;2024-02-23T11:17:04;11.90;;;6.80;;
61435;SDS011;47304;47.456;19.160;2024-02-23T11:19:33;11.80;;;6.30;;
61435;SDS011;47304;47.456;19.160;2024-02-23T11:22:02;11.90;;;5.90;;
61435;SDS011;47304;47.456;19.160;2024-02-23T11:24:31;9.40;;;5.00;;
61435;SDS011;47304;47.456;19.160;2024-02-23T11:26:59;9.80;;;4.60;;
61435;SDS011;47304;47.456;19.160;2024-02-23T11:29:28;8.60;;;4.90;;
61435;SDS011;47304;47.456;19.160;2024-02-23T11:31:57;10.60;;;5.90;;
61435;SDS011;47304;47.456;19.160;2024-02-23T11:34:26;10.20;;;5.70;;
61435;SDS011;47304;47.456;19.160;2024-02-23T11:36:55;10.90;;;6.10;;
61435;SDS011;47304;47.456;19.160;2024-02-23T11:39:23;10.50;;;5.00;;
61435;SDS011;47304;47.456;19.160;2024-02-23T11:41:52;12.70;;;7.50;;
61435;SDS011;47304;47.456;19.160;2024-02-23T11:44:21;12.30;;;6.40;;
61435;SDS011;47304;47.456;19.160;2024-02-23T11:46:49;11.00;;;5.90;;
61435;SDS011;47304;47.456;19.160;2024-02-23T11:49:17;11.80;;;6.70;;
61435;SDS011;47304;47.456;19.160;2024-02-23T11:51:45;12.30;;;6.00;;
61435;SDS011;47304;47.456;19.160;2024-02-23T11:54:13;10.70;;;5.20;;
61435;SDS011;47304;47.456;19.160;2024-02-23T11:56:42;10.70;;;5.70;;
61435;SDS011;47304;47.456;19.160;2024-02-23T11:59:11;14.70;;;7.10;;
61435;SDS011;47304;47.456;19.160;2024-02-23T12:01:39;14.70;;;7.40;;
61435;SDS011;47304;47.456;19.160;2024-02-23T12:04:07;14.50;;;8.80;;
61435;SDS011;47304;47.456;19.160;2024-02-23T12:06:36;11.40;;;6.60;;
61435;SDS011;47304;47.456;19.160;2024-02-23T12:09:04;11.50;;;7.30;;
61435;SDS011;47304;47.456;19.160;2024-02-23T12:11:34;11.30;;;6.50;;
61435;SDS011;47304;47.456;19.160;2024-02-23T12:14:02;12.10;;;6.90;;
61435;SDS011;47304;47.456;19.160;2024-02-23T12:16:31;12.20;;;7.00;;
61435;SDS011;47304;47.456;19.160;2024-02-23T12:19:00;12.20;;;6.30;;
61435;SDS011;47304;47.456;19.160;2024-02-23T12:21:29;10.80;;;6.20;;
61435;SDS011;47304;47.456;19.160;2024-02-23T12:24:03;11.30;;;6.10;;
61435;SDS011;47304;47.456;19.160;2024-02-23T12:26:32;12.40;;;5.90;;
61435;SDS011;47304;47.456;19.160;2024-02-23T12:29:01;10.60;;;5.50;;
61435;SDS011;47304;47.456;19.160;2024-02-23T12:31:30;11.00;;;5.90;;
61435;SDS011;47304;47.456;19.160;2024-02-23T12:33:59;11.70;;;6.00;;
61435;SDS011;47304;47.456;19.160;2024-02-23T12:36:27;11.30;;;5.90;;
61435;SDS011;47304;47.456;19.160;2024-02-23T12:38:56;11.50;;;6.10;;
61435;SDS011;47304;47.456;19.160;2024-02-23T12:41:24;13.00;;;7.00;;
61435;SDS011;47304;47.456;19.160;2024-02-23T12:43:52;11.20;;;6.80;;
61435;SDS011;47304;47.456;19.160;2024-02-23T12:46:21;11.00;;;6.50;;
61435;SDS011;47304;47.456;19.160;2024-02-23T12:48:49;10.40;;;6.70;;
61435;SDS011;47304;47.456;19.160;2024-02-23T12:51:17;10.40;;;5.70;;
61435;SDS011;47304;47.456;19.160;2024-02-23T12:53:51;11.90;;;6.30;;
61435;SDS011;47304;47.456;19.160;2024-02-23T12:56:19;11.00;;;6.00;;
61435;SDS011;47304;47.456;19.160;2024-02-23T12:58:48;10.30;;;5.80;;
61435;SDS011;47304;47.456;19.160;2024-02-23T13:01:16;12.00;;;5.60;;
61435;SDS011;47304;47.456;19.160;2024-02-23T13:03:44;10.10;;;5.30;;
61435;SDS011;47304;47.456;19.160;2024-02-23T13:06:12;10.60;;;5.70;;
61435;SDS011;47304;47.456;19.160;2024-02-23T13:08:41;10.20;;;5.90;;
61435;SDS011;47304;47.456;19.160;2024-02-23T13:11:09;12.20;;;6.30;;
61435;SDS011;47304;47.456;19.160;2024-02-23T13:13:38;12.00;;;6.70;;
61435;SDS011;47304;47.456;19.160;2024-02-23T13:16:06;12.80;;;9.00;;
61435;SDS011;47304;47.456;19.160;2024-02-23T13:18:35;12.10;;;7.00;;
61435;SDS011;47304;47.456;19.160;2024-02-23T13:21:03;12.40;;;6.70;;
61435;SDS011;47304;47.456;19.160;2024-02-23T13:23:33;12.40;;;7.10;;
61435;SDS011;47304;47.456;19.160;2024-02-23T13:26:01;12.20;;;6.20;;
61435;SDS011;47304;47.456;19.160;2024-02-23T13:28:30;11.10;;;6.20;;
61435;SDS011;47304;47.456;19.160;2024-02-23T13:30:58;11.50;;;6.30;;
61435;SDS011;47304;47.456;19.160;2024-02-23T13:33:26;12.00;;;6.20;;
61435;SDS011;47304;47.456;19.160;2024-02-23T13:35:54;12.40;;;7.00;;
61435;SDS011;47304;47.456;19.160;2024-02-23T13:38:23;10.30;;;6.00;;
61435;SDS011;47304;47.456;19.160;2024-02-23T13:40:51;12.50;;;7.00;;
61435;SDS011;47304;47.456;19.160;2024-02-23T13:43:20;12.10;;;6.20;;
61435;SDS011;47304;47.456;19.160;2024-02-23T13:45:51;11.10;;;6.50;;
61435;SDS011;47304;47.456;19.160;2024-02-23T13:48:19;12.90;;;7.40;;
61435;SDS011;47304;47.456;19.160;2024-02-23T13:50:47;14.10;;;7.00;;
61435;SDS011;47304;47.456;19.160;2024-02-23T13:53:16;13.90;;;7.60;;
61435;SDS011;47304;47.456;19.160;2024-02-23T13:55:44;13.00;;;7.00;;
61435;SDS011;47304;47.456;19.160;2024-02-23T13:58:12;13.60;;;8.30;;
61435;SDS011;47304;47.456;19.160;2024-02-23T14:00:40;15.10;;;8.80;;
61435;SDS011;47304;47.456;19.160;2024-02-23T14:03:10;15.70;;;8.80;;
61435;SDS011;47304;47.456;19.160;2024-02-23T14:05:43;13.20;;;8.10;;
61435;SDS011;47304;47.456;19.160;2024-02-23T14:08:12;13.40;;;7.70;;
61435;SDS011;47304;47.456;19.160;2024-02-23T14:10:40;14.30;;;7.90;;
61435;SDS011;47304;47.456;19.160;2024-02-23T14:13:08;14.50;;;8.30;;
61435;SDS011;47304;47.456;19.160;2024-02-23T14:15:37;13.90;;;7.90;;
61435;SDS011;47304;47.456;19.160;2024-02-23T14:18:06;15.20;;;8.10;;
61435;SDS011;47304;47.456;19.160;2024-02-23T14:20:34;13.10;;;8.80;;
61435;SDS011;47304;47.456;19.160;2024-02-23T14:23:03;14.00;;;8.00;;
61435;SDS011;47304;47.456;19.160;2024-02-23T14:25:31;13.50;;;7.90;;
61435;SDS011;47304;47.456;19.160;2024-02-23T14:27:59;15.00;;;7.50;;
61435;SDS011;47304;47.456;19.160;2024-02-23T14:30:43;16.10;;;8.60;;
61435;SDS011;47304;47.456;19.160;2024-02-23T14:33:11;15.90;;;8.00;;
61435;SDS011;47304;47.456;19.160;2024-02-23T14:35:40;15.70;;;7.90;;
61435;SDS011;47304;47.456;19.160;2024-02-23T14:38:08;14.30;;;8.00;;
61435;SDS011;47304;47.456;19.160;2024-02-23T14:40:36;19.00;;;8.30;;
61435;SDS011;47304;47.456;19.160;2024-02-23T14:43:04;13.60;;;9.00;;
61435;SDS011;47304;47.456;19.160;2024-02-23T14:45:33;14.10;;;8.70;;